Saint Louis, MO (63108)

3:06 PM CST on February 01, 2015 (GMT -0600)
Shaw/Tower Grove | Change Station
CLOSE
Current Station
Personal Weather Station
Location: St. Louis, MO
Elevation: 502 ft
Nearby Weather Stations

Elev 502 ft 38.61 °N, 90.25 °W | Updated 1 minute ago

Overcast
Overcast
40.5 °F
Feels Like 40 °F
N
1.7
Wind Variable Wind from South

Today
High -- | Low -- °F
--% Chance of Precip.
Yesterday
High -- | Low -- °F
Precip. -- in
7:06 AM 5:22 PM
Waxing Gibbous, 96% visible
Pressure 29.67 in
Visibility 10.0 miles
Clouds Overcast 1200 ft
Windchill 40 °F
Dew Point 39 °F
Humidity 94%
Rainfall 0.64 in
Snow Depth Not available.
UV 1 out of 12
Pollen .10 out of 12
Air Quality Not available.
Flu Activity Not available.
METAR KSTL 012051Z 30009KT 10SM OVC012 05/02 A2965 RMK AO2 SLP045 60001 T00500022 55009

More Conditions Fewer Conditions

Pressure 29.67 in
Visibility 10.0 miles
Clouds Overcast 1200 ft
Windchill 40 °F
Dew Point 39 °F
Humidity 94%
Rainfall 0.64 in
Snow Depth Not available.
UV 1 out of 12
Pollen .10 out of 12
Air Quality Not available.
Flu Activity Not available.
METAR KSTL 012051Z 30009KT 10SM OVC012 05/02 A2965 RMK AO2 SLP045 60001 T00500022 55009

More Conditions Fewer Conditions

10-Day Weather Forecast

Almanac

Astronomy

Feb. 01, 2015 Rise Set
Actual Time
Civil Twilight
Nautical Twilight
Astronomical Twilight
Moon
Length of Visible Light
Length of Day
Tomorrow will be .
, % of the Moon is Illuminated

Today's Extremes

State Highs State Lows

Community

WunderPhotos

Upload Photos

1,792,529 photos uploaded!

WunderBlogs® & News

Nearby

Air Quality

  Air Quality AQ Index Pollutant
Not available.

Snow Depth

Station Depth Elevation

Earthquake Activity

City Distance Mag. Time & Date
Minimum magnitude displayed is 2.5.

Coastal Water Temperatures

Place Temperature

Nearby Weather Stations